KBOSKMHT

Guest
Details From KBOS - Boston Logan Intl
To KMHT - Manchester
Flight Number -
Tags Routegen Generated
Created
Modified
Stats Distance 38 nm / 69 km
Max Altitude 100 ft / 30 m
Waypoints 5
Social Downloads 11
Likes 0
Share VATSIM

Download

Looking for another format? Having issues loading an existing format? Contact us
Advertisement - Login to hide

Notes

Departing runway 31 KBOS. Arriving runway 15 KMHT.

Route

KBOS +42.43_-071.09 +42.64_-071.24 +42.85_-071.39 KMHT

ID Type Via Altitude Latitude Longitude Leg Dist Tot Dist Heading (true) Name
O KBOS APT - 0 ft / 0 m 42.37427˚ -71.01789˚ - 0 nm - -
+42.43_-071.09 LATLON - 100 ft / 30 m 42.42567˚ -71.08688˚ 4 nm 4 nm 315° / 315° -
+42.64_-071.24 LATLON - 100 ft / 30 m 42.63887˚ -71.23674˚ 14 nm 18 nm 333° / 333° -
+42.85_-071.39 LATLON - 100 ft / 30 m 42.85207˚ -71.38661˚ 14 nm 33 nm 333° / 333° -
O KMHT APT - 0 ft / 0 m 42.91849˚ -71.42581˚ 4 nm 37 nm 337° / 337° -

Altitude Profile

Advertisement - Login to hide

KBOS

Details ICAO KBOS (BOS)
Name Boston Logan Intl
Region United States
Timezone America/New_York (UTC-5.0)
Stats Elevation 20 ft / 6 m (AMSL)
Location 42.363056° -71.006962°
Runways 6
Magnetic Variation 14.672° W

METAR

KBOS 161554Z 25019G24KT 10SM FEW030 FEW220 M01/M10 A2992 RMK AO2 SLP131 T10061100

Decode

TAF

TAF AMD KBOS 161503Z 1615/1718 27012G25KT P6SM FEW090 FM162000 27014KT P6SM BKN080 FM170100 30011KT P6SM FEW250 FM171600 31007KT P6SM FEW200

Decode

Departure Runways

ID Width Length Bearing (true) Bearing (mag) Surface Threshold Offset Overrun Length
04L 151 ft / 46 m 7,868 ft / 2,398 m 19.67° 34.34° Asphalt 0 ft / 0 m 0 ft / 0 m
04R 151 ft / 46 m 10,014 ft / 3,052 m 19.67° 34.34° Asphalt 1,155 ft / 352 m 0 ft / 0 m
09 151 ft / 46 m 6,985 ft / 2,129 m 76.51° 91.18° Asphalt 0 ft / 0 m 0 ft / 0 m
14 98 ft / 30 m 4,995 ft / 1,522 m 125.75° 140.42° Asphalt 0 ft / 0 m 0 ft / 0 m
15L 98 ft / 30 m 2,556 ft / 779 m 135.29° 149.96° Asphalt 0 ft / 0 m 98 ft / 30 m
15R 151 ft / 46 m 10,078 ft / 3,072 m 135.26° 149.93° Asphalt 879 ft / 268 m 200 ft / 61 m
22L 151 ft / 46 m 10,014 ft / 3,052 m 199.68° 214.35° Asphalt 1,198 ft / 365 m 200 ft / 61 m
22R 151 ft / 46 m 7,868 ft / 2,398 m 199.67° 214.34° Asphalt 814 ft / 248 m 200 ft / 61 m
27 151 ft / 46 m 6,985 ft / 2,129 m 256.53° 271.20° Asphalt 0 ft / 0 m 161 ft / 49 m
32 98 ft / 30 m 4,995 ft / 1,522 m 305.76° 320.43° Asphalt 0 ft / 0 m 801 ft / 244 m
33L 151 ft / 46 m 10,078 ft / 3,072 m 315.28° 329.95° Asphalt 0 ft / 0 m 174 ft / 53 m
33R 98 ft / 30 m 2,556 ft / 779 m 315.29° 329.96° Asphalt 0 ft / 0 m 98 ft / 30 m

KMHT

Details ICAO KMHT (MHT)
Name Manchester
Region United States
Timezone America/New_York (UTC-5.0)
Stats Elevation 241 ft / 73 m (AMSL)
Location 42.932843° -71.436369°
Runways 2
Magnetic Variation 14.646° W

METAR

KMHT 161553Z 26004KT 10SM FEW120 M02/M09 A2988 RMK AO2 SLP136 T10171094

Decode

TAF

TAF KMHT 161120Z 1612/1712 26005KT P6SM SCT050= TAF KHIE 161120Z 1612/1712 VRB03KT P6SM VCSH BKN050 FM161500 26006KT P6SM BKN050 FM162000 29008KT P6SM BKN050

Decode

Destination Runways

ID Width Length Bearing (true) Bearing (mag) Surface Threshold Offset Overrun Length
06 151 ft / 46 m 7,051 ft / 2,149 m 42.31° 56.96° Asphalt 443 ft / 135 m 151 ft / 46 m
17 151 ft / 46 m 9,255 ft / 2,821 m 156.60° 171.25° Asphalt 335 ft / 102 m 200 ft / 61 m
24 151 ft / 46 m 7,051 ft / 2,149 m 222.32° 236.97° Asphalt 0 ft / 0 m 102 ft / 31 m
35 151 ft / 46 m 9,255 ft / 2,821 m 336.61° 351.26° Asphalt 850 ft / 259 m 200 ft / 61 m

Approach Navaids

Runway Type Ident Frequency Range Bearing (true) Bearing (mag) Slope Elevation
06 Localiser IMJE 109.95 MHz 18 nm / 33 km 42.34° 56.99° - 248 ft / 76 m (AMSL)
06 Glidescope IMJE 109.95 MHz 10 nm / 19 km 42.31° 56.96° 3.00° 217 ft / 66 m (AMSL)
17 Localiser IMNA 109.10 MHz 18 nm / 33 km 156.57° 171.22° - 277 ft / 84 m (AMSL)
17 Glidescope IMNA 109.10 MHz 10 nm / 19 km 156.61° 171.25° 3.10° 220 ft / 67 m (AMSL)
17 DME IMNA 109.10 MHz 18 nm / 33 km - - - 257 ft / 78 m (AMSL)
35 Localiser IMHT 109.10 MHz 18 nm / 33 km 336.63° 351.27° - 216 ft / 66 m (AMSL)
35 Glidescope IMHT 109.10 MHz 10 nm / 19 km 336.61° 351.25° 3.00° 248 ft / 76 m (AMSL)
35 DME IMHT 109.10 MHz 18 nm / 33 km - - - 236 ft / 72 m (AMSL)

Popular Alternatives